createdAt,value
2022-12-31T00:03:58.046Z,13.10
2022-12-31T00:08:51.822Z,13.10
2022-12-31T00:13:43.844Z,12.56
2022-12-31T00:18:35.806Z,13.21
2022-12-31T00:23:27.467Z,13.30
2022-12-31T00:28:18.977Z,13.38
2022-12-31T00:33:11.017Z,13.43
2022-12-31T00:38:02.548Z,13.23
2022-12-31T00:42:54.972Z,13.02
2022-12-31T00:47:46.498Z,13.59
2022-12-31T00:52:38.807Z,13.51
2022-12-31T00:57:30.507Z,13.69
2022-12-31T01:02:22.224Z,13.80
2022-12-31T01:07:13.877Z,13.96
2022-12-31T01:12:05.811Z,14.09
2022-12-31T01:16:57.357Z,13.81
2022-12-31T01:21:50.990Z,14.03
2022-12-31T01:26:42.805Z,14.14
2022-12-31T01:31:37.002Z,13.93
2022-12-31T01:36:31.108Z,14.31
2022-12-31T01:41:34.215Z,14.40
2022-12-31T01:46:28.540Z,14.09
2022-12-31T01:51:22.198Z,13.94
2022-12-31T01:56:14.400Z,14.43
2022-12-31T02:01:09.629Z,14.42
2022-12-31T02:06:04.931Z,14.42
2022-12-31T02:10:56.511Z,13.91
2022-12-31T02:16:01.049Z,14.51
2022-12-31T02:21:04.955Z,14.53
2022-12-31T02:26:15.293Z,14.67
2022-12-31T02:31:13.641Z,14.58
2022-12-31T02:36:12.837Z,14.24
2022-12-31T02:41:04.645Z,14.85
2022-12-31T02:46:15.464Z,15.01
2022-12-31T02:51:51.955Z,14.93
2022-12-31T02:56:58.702Z,15.23
2022-12-31T03:02:16.392Z,15.34
2022-12-31T03:07:10.337Z,15.40
2022-12-31T03:12:21.543Z,15.13
2022-12-31T03:17:13.122Z,15.38
2022-12-31T03:22:23.962Z,15.35
2022-12-31T03:27:15.547Z,15.07
2022-12-31T03:32:07.085Z,15.29
2022-12-31T03:36:58.656Z,15.11
2022-12-31T03:41:50.214Z,14.79
2022-12-31T03:46:41.743Z,15.17
2022-12-31T04:21:54.536Z,14.85
2022-12-31T04:26:46.155Z,15.19
2022-12-31T04:31:37.725Z,15.18
2022-12-31T04:36:29.476Z,14.86
2022-12-31T04:41:21.152Z,15.13
2022-12-31T04:46:13.892Z,15.49
2022-12-31T04:51:05.903Z,14.96
2022-12-31T04:55:57.444Z,15.64
2022-12-31T05:00:51.473Z,15.70
2022-12-31T05:05:43.517Z,15.70
2022-12-31T05:10:35.156Z,15.71
2022-12-31T05:15:26.659Z,15.73
2022-12-31T05:20:18.177Z,15.83
2022-12-31T05:25:09.768Z,16.04
2022-12-31T05:30:01.499Z,15.95
2022-12-31T05:34:53.586Z,15.82
2022-12-31T05:39:45.166Z,15.95
2022-12-31T05:44:36.711Z,15.96
2022-12-31T05:49:28.305Z,16.26
2022-12-31T05:54:19.946Z,16.23
2022-12-31T05:59:11.594Z,16.21
2022-12-31T06:04:03.198Z,15.94
2022-12-31T06:08:54.813Z,16.06
2022-12-31T06:13:46.393Z,15.96
2022-12-31T06:18:38.078Z,15.70
2022-12-31T06:23:30.120Z,15.96
2022-12-31T06:28:21.724Z,16.01
2022-12-31T06:33:13.321Z,16.00
2022-12-31T06:38:05.498Z,16.16
2022-12-31T06:43:00.116Z,16.21
2022-12-31T06:47:51.810Z,16.19
2022-12-31T06:52:43.441Z,16.15
2022-12-31T06:57:35.432Z,16.32
2022-12-31T07:02:57.116Z,16.33
2022-12-31T07:08:10.069Z,16.26
2022-12-31T07:13:17.899Z,15.94
2022-12-31T07:18:34.581Z,16.31
2022-12-31T07:23:26.498Z,16.37
2022-12-31T07:28:34.375Z,16.35
2022-12-31T07:33:31.897Z,16.36
2022-12-31T07:38:37.824Z,16.13
2022-12-31T07:43:46.612Z,15.51
2022-12-31T07:48:38.364Z,16.36
2022-12-31T07:53:30.400Z,16.31
2022-12-31T07:58:26.045Z,16.48
2022-12-31T08:03:55.673Z,16.48
2022-12-31T08:09:00.584Z,16.07
2022-12-31T08:13:54.293Z,16.55
2022-12-31T08:18:46.028Z,16.51
2022-12-31T08:24:21.760Z,16.35
2022-12-31T08:29:39.955Z,16.54
2022-12-31T08:34:36.996Z,16.23
2022-12-31T08:39:35.987Z,16.71
2022-12-31T08:44:45.946Z,16.81
2022-12-31T08:49:37.706Z,16.72
2022-12-31T08:54:30.021Z,16.89
2022-12-31T08:59:29.747Z,16.94
2022-12-31T09:04:36.610Z,17.03
2022-12-31T09:09:43.559Z,17.04
2022-12-31T09:14:53.846Z,17.09
2022-12-31T09:19:45.578Z,17.12
2022-12-31T09:24:37.471Z,17.15
2022-12-31T09:29:58.358Z,17.26
2022-12-31T09:34:57.734Z,17.29
2022-12-31T09:39:49.764Z,17.38
2022-12-31T09:45:04.754Z,17.22
2022-12-31T09:50:35.449Z,17.11
2022-12-31T09:55:48.548Z,17.33
2022-12-31T10:01:08.355Z,17.28
2022-12-31T10:06:24.699Z,17.44
2022-12-31T10:11:22.292Z,17.48
2022-12-31T10:16:44.045Z,17.33
2022-12-31T10:22:14.240Z,16.81
2022-12-31T10:27:27.596Z,17.84
2022-12-31T10:33:02.697Z,17.83
2022-12-31T10:37:56.950Z,18.01
2022-12-31T10:43:10.356Z,18.05
2022-12-31T10:48:52.416Z,17.88
2022-12-31T10:53:53.108Z,17.88
2022-12-31T10:58:49.371Z,17.87
2022-12-31T11:04:02.417Z,17.88
2022-12-31T11:09:06.306Z,17.90
2022-12-31T11:14:19.611Z,17.88
2022-12-31T11:19:27.555Z,17.69
2022-12-31T11:24:46.761Z,18.02
2022-12-31T11:29:50.942Z,18.06
2022-12-31T11:34:48.470Z,18.30
2022-12-31T11:39:54.742Z,17.92
2022-12-31T11:44:57.610Z,18.17
2022-12-31T11:50:10.745Z,18.00
2022-12-31T11:55:20.930Z,17.88
2022-12-31T12:00:20.214Z,17.78
2022-12-31T12:05:15.848Z,17.76
2022-12-31T12:10:31.943Z,17.51
2022-12-31T12:15:34.890Z,17.76
2022-12-31T12:20:31.716Z,17.72
2022-12-31T12:25:26.971Z,17.54
2022-12-31T12:30:27.960Z,17.54
2022-12-31T12:35:26.188Z,18.05
2022-12-31T12:40:29.787Z,18.14
2022-12-31T12:45:39.889Z,18.14
2022-12-31T12:50:51.228Z,17.73
2022-12-31T12:56:24.619Z,17.47
2022-12-31T13:01:47.691Z,17.13
2022-12-31T13:07:07.304Z,17.59
2022-12-31T13:12:16.400Z,17.24
2022-12-31T13:17:32.156Z,17.60
2022-12-31T13:22:33.458Z,17.48
2022-12-31T13:27:39.086Z,17.43
2022-12-31T13:32:45.641Z,16.30
2022-12-31T13:37:42.093Z,17.01
2022-12-31T13:42:45.715Z,16.05
2022-12-31T13:47:45.116Z,16.73
2022-12-31T13:52:46.337Z,16.86
2022-12-31T13:58:01.726Z,16.86
2022-12-31T14:03:15.378Z,16.44
2022-12-31T14:08:07.067Z,16.29
2022-12-31T14:13:18.038Z,16.53
2022-12-31T14:18:35.333Z,16.35
2022-12-31T14:23:45.328Z,16.41
2022-12-31T14:28:47.119Z,15.98
2022-12-31T14:33:56.367Z,16.14
2022-12-31T14:39:08.519Z,16.30
2022-12-31T14:44:18.665Z,16.26
2022-12-31T14:49:50.188Z,16.28
2022-12-31T14:54:42.319Z,16.10
2022-12-31T14:59:40.102Z,16.18
2022-12-31T15:04:43.729Z,15.38
2022-12-31T15:09:56.687Z,15.79
2022-12-31T15:15:00.901Z,16.20
2022-12-31T15:20:05.358Z,16.28
2022-12-31T15:24:57.922Z,16.28
2022-12-31T15:29:49.592Z,16.19
2022-12-31T15:34:41.210Z,16.10
2022-12-31T15:39:32.792Z,15.99
2022-12-31T15:44:30.551Z,15.84
2022-12-31T15:49:24.140Z,15.35
2022-12-31T15:54:30.742Z,15.30
2022-12-31T15:59:24.527Z,15.41
2022-12-31T16:04:39.303Z,15.69
2022-12-31T16:09:34.761Z,15.60
2022-12-31T16:14:37.798Z,15.44
2022-12-31T16:19:43.619Z,14.64
2022-12-31T16:24:48.917Z,14.65
2022-12-31T16:29:55.848Z,15.10
2022-12-31T16:34:47.651Z,15.29
2022-12-31T16:39:58.106Z,15.00
2022-12-31T16:44:51.337Z,14.70
2022-12-31T16:49:43.336Z,14.70
2022-12-31T16:54:40.323Z,15.14
2022-12-31T16:59:45.452Z,14.84
2022-12-31T17:04:41.496Z,14.37
2022-12-31T17:09:38.481Z,14.85
2022-12-31T17:14:30.460Z,14.58
2022-12-31T17:19:47.208Z,14.94
2022-12-31T17:24:39.949Z,14.47
2022-12-31T17:29:33.540Z,14.93
2022-12-31T17:34:40.074Z,14.61
2022-12-31T17:39:48.176Z,14.86
2022-12-31T17:44:43.439Z,14.67
2022-12-31T17:49:36.728Z,14.57
2022-12-31T17:54:28.277Z,14.64
2022-12-31T17:59:29.694Z,14.85
2022-12-31T18:04:21.414Z,14.61
2022-12-31T18:09:13.091Z,14.32
2022-12-31T18:14:04.856Z,14.70
2022-12-31T18:18:58.874Z,13.64
2022-12-31T18:23:50.711Z,14.53
2022-12-31T18:28:42.342Z,14.70
2022-12-31T18:33:33.910Z,14.59
2022-12-31T18:38:25.469Z,14.06
2022-12-31T18:43:18.432Z,13.93
2022-12-31T18:48:10.168Z,14.61
2022-12-31T18:53:01.774Z,14.87
2022-12-31T18:57:53.376Z,14.59
2022-12-31T19:02:45.026Z,14.70
2022-12-31T19:07:36.567Z,14.45
2022-12-31T19:12:28.235Z,14.15
2022-12-31T19:17:21.529Z,14.34
2022-12-31T19:22:15.328Z,14.81
2022-12-31T19:27:06.950Z,14.99
2022-12-31T19:32:01.098Z,15.06
2022-12-31T19:36:52.883Z,14.50
2022-12-31T19:41:45.367Z,15.02
2022-12-31T19:46:36.943Z,14.41
2022-12-31T19:51:28.510Z,13.89
2022-12-31T19:56:20.319Z,14.96
2022-12-31T20:01:22.247Z,15.00
2022-12-31T20:06:14.283Z,14.88
2022-12-31T20:11:14.636Z,14.88
2022-12-31T20:16:08.744Z,14.79
2022-12-31T20:21:00.599Z,14.55
2022-12-31T20:25:59.308Z,14.40
2022-12-31T20:30:50.940Z,14.40
2022-12-31T20:35:42.517Z,14.58
2022-12-31T20:40:34.229Z,14.74
2022-12-31T20:45:25.923Z,13.96
2022-12-31T20:50:17.992Z,14.02
2022-12-31T20:55:11.212Z,14.61
2022-12-31T21:00:04.309Z,14.85
2022-12-31T21:04:56.013Z,14.84
2022-12-31T21:09:47.772Z,14.90
2022-12-31T21:14:44.528Z,14.59
2022-12-31T21:19:36.448Z,14.12
2022-12-31T21:24:28.040Z,13.87
2022-12-31T21:29:19.848Z,14.43
2022-12-31T21:34:11.512Z,14.23
2022-12-31T21:39:03.503Z,14.30
2022-12-31T21:43:55.167Z,13.66
2022-12-31T21:48:46.743Z,13.76
2022-12-31T21:53:38.597Z,13.15
2022-12-31T21:58:30.851Z,13.77
2022-12-31T22:03:27.348Z,13.79
2022-12-31T22:08:20.881Z,13.65
2022-12-31T22:13:13.738Z,14.14
2022-12-31T22:18:05.379Z,14.25
2022-12-31T22:22:56.968Z,14.24
2022-12-31T22:28:04.399Z,14.26
2022-12-31T22:33:00.356Z,14.06
2022-12-31T22:37:57.536Z,14.12
2022-12-31T22:42:51.982Z,13.87
2022-12-31T22:47:43.491Z,14.29
2022-12-31T22:52:35.055Z,14.16
2022-12-31T22:57:26.674Z,14.27
2022-12-31T23:02:18.367Z,14.37
2022-12-31T23:07:09.864Z,14.70
2022-12-31T23:12:02.931Z,14.94
2022-12-31T23:17:29.653Z,15.05
2022-12-31T23:22:42.169Z,14.18
2022-12-31T23:27:33.771Z,14.82
2022-12-31T23:32:25.389Z,14.69
2022-12-31T23:37:16.958Z,15.04
2022-12-31T23:42:08.736Z,13.83
2022-12-31T23:47:00.353Z,14.77
2022-12-31T23:51:52.009Z,14.61
2022-12-31T23:56:43.645Z,14.39
